sensor_id;sensor_type;location;lat;lon;timestamp;P1;durP1;ratioP1;P2;durP2;ratioP2
54983;SDS011;40884;53.562;9.940;2022-11-03T00:00:33;6.47;;;2.27;;
54983;SDS011;40884;53.562;9.940;2022-11-03T00:01:34;10.03;;;2.50;;
54983;SDS011;40884;53.562;9.940;2022-11-03T00:02:34;9.63;;;2.70;;
54983;SDS011;40884;53.562;9.940;2022-11-03T00:03:34;6.00;;;2.43;;
54983;SDS011;40884;53.562;9.940;2022-11-03T00:04:34;9.87;;;2.87;;
54983;SDS011;40884;53.562;9.940;2022-11-03T00:05:34;7.63;;;2.37;;
54983;SDS011;40884;53.562;9.940;2022-11-03T00:06:35;8.80;;;2.70;;
54983;SDS011;40884;53.562;9.940;2022-11-03T00:07:35;8.87;;;2.60;;
54983;SDS011;40884;53.562;9.940;2022-11-03T00:08:36;9.40;;;2.60;;
54983;SDS011;40884;53.562;9.940;2022-11-03T00:09:37;9.30;;;2.73;;
54983;SDS011;40884;53.562;9.940;2022-11-03T00:10:37;7.03;;;2.23;;
54983;SDS011;40884;53.562;9.940;2022-11-03T00:11:37;10.47;;;2.53;;
54983;SDS011;40884;53.562;9.940;2022-11-03T00:12:38;11.10;;;2.40;;
54983;SDS011;40884;53.562;9.940;2022-11-03T00:13:40;7.37;;;2.70;;
54983;SDS011;40884;53.562;9.940;2022-11-03T00:14:40;9.70;;;2.40;;
54983;SDS011;40884;53.562;9.940;2022-11-03T00:15:46;9.27;;;2.30;;
54983;SDS011;40884;53.562;9.940;2022-11-03T00:16:46;7.07;;;2.20;;
54983;SDS011;40884;53.562;9.940;2022-11-03T00:17:47;6.23;;;2.00;;
54983;SDS011;40884;53.562;9.940;2022-11-03T00:18:47;6.77;;;2.80;;
54983;SDS011;40884;53.562;9.940;2022-11-03T00:19:47;6.33;;;2.50;;
54983;SDS011;40884;53.562;9.940;2022-11-03T00:21:04;5.53;;;2.43;;
54983;SDS011;40884;53.562;9.940;2022-11-03T00:22:04;12.83;;;2.90;;
54983;SDS011;40884;53.562;9.940;2022-11-03T00:23:04;7.63;;;2.43;;
54983;SDS011;40884;53.562;9.940;2022-11-03T00:24:04;9.77;;;3.17;;
54983;SDS011;40884;53.562;9.940;2022-11-03T00:25:05;6.53;;;2.60;;
54983;SDS011;40884;53.562;9.940;2022-11-03T00:26:12;6.27;;;2.40;;
54983;SDS011;40884;53.562;9.940;2022-11-03T00:27:13;9.77;;;2.23;;
54983;SDS011;40884;53.562;9.940;2022-11-03T00:28:13;6.33;;;2.33;;
54983;SDS011;40884;53.562;9.940;2022-11-03T00:29:13;7.57;;;2.10;;
54983;SDS011;40884;53.562;9.940;2022-11-03T00:30:13;8.03;;;2.47;;
54983;SDS011;40884;53.562;9.940;2022-11-03T00:31:14;6.70;;;2.53;;
54983;SDS011;40884;53.562;9.940;2022-11-03T00:32:15;8.37;;;2.23;;
54983;SDS011;40884;53.562;9.940;2022-11-03T00:33:15;7.40;;;2.60;;
54983;SDS011;40884;53.562;9.940;2022-11-03T00:34:15;10.13;;;2.40;;
54983;SDS011;40884;53.562;9.940;2022-11-03T00:35:15;6.57;;;2.63;;
54983;SDS011;40884;53.562;9.940;2022-11-03T00:36:16;7.87;;;2.67;;
54983;SDS011;40884;53.562;9.940;2022-11-03T00:37:17;6.10;;;2.60;;
54983;SDS011;40884;53.562;9.940;2022-11-03T00:38:17;7.77;;;2.30;;
54983;SDS011;40884;53.562;9.940;2022-11-03T00:39:17;6.33;;;2.30;;
54983;SDS011;40884;53.562;9.940;2022-11-03T00:40:17;10.07;;;2.73;;
54983;SDS011;40884;53.562;9.940;2022-11-03T00:41:18;9.87;;;2.40;;
54983;SDS011;40884;53.562;9.940;2022-11-03T00:42:18;8.83;;;2.40;;
54983;SDS011;40884;53.562;9.940;2022-11-03T00:43:19;6.50;;;2.30;;
54983;SDS011;40884;53.562;9.940;2022-11-03T00:44:19;8.60;;;2.30;;
54983;SDS011;40884;53.562;9.940;2022-11-03T00:45:19;6.63;;;2.83;;
54983;SDS011;40884;53.562;9.940;2022-11-03T00:46:20;9.10;;;2.33;;
54983;SDS011;40884;53.562;9.940;2022-11-03T00:47:20;13.10;;;2.47;;
54983;SDS011;40884;53.562;9.940;2022-11-03T00:48:21;9.30;;;2.60;;
54983;SDS011;40884;53.562;9.940;2022-11-03T00:49:21;6.83;;;2.23;;
54983;SDS011;40884;53.562;9.940;2022-11-03T00:50:21;10.07;;;2.47;;
54983;SDS011;40884;53.562;9.940;2022-11-03T00:51:30;8.17;;;2.40;;
54983;SDS011;40884;53.562;9.940;2022-11-03T00:52:30;10.03;;;2.90;;
54983;SDS011;40884;53.562;9.940;2022-11-03T00:53:31;8.90;;;2.60;;
54983;SDS011;40884;53.562;9.940;2022-11-03T00:54:31;7.77;;;2.40;;
54983;SDS011;40884;53.562;9.940;2022-11-03T00:55:31;6.47;;;2.50;;
54983;SDS011;40884;53.562;9.940;2022-11-03T00:56:35;7.43;;;2.20;;
54983;SDS011;40884;53.562;9.940;2022-11-03T00:57:35;9.10;;;2.80;;
54983;SDS011;40884;53.562;9.940;2022-11-03T00:58:36;8.07;;;2.33;;
54983;SDS011;40884;53.562;9.940;2022-11-03T00:59:36;10.47;;;3.03;;
54983;SDS011;40884;53.562;9.940;2022-11-03T01:00:36;7.57;;;2.27;;
54983;SDS011;40884;53.562;9.940;2022-11-03T01:01:40;8.70;;;2.40;;
54983;SDS011;40884;53.562;9.940;2022-11-03T01:02:40;6.77;;;2.30;;
54983;SDS011;40884;53.562;9.940;2022-11-03T01:03:41;6.60;;;2.47;;
54983;SDS011;40884;53.562;9.940;2022-11-03T01:04:41;6.70;;;2.33;;
54983;SDS011;40884;53.562;9.940;2022-11-03T01:05:42;9.30;;;2.40;;
54983;SDS011;40884;53.562;9.940;2022-11-03T01:06:43;8.93;;;2.30;;
54983;SDS011;40884;53.562;9.940;2022-11-03T01:07:44;7.57;;;2.60;;
54983;SDS011;40884;53.562;9.940;2022-11-03T01:08:44;8.70;;;2.63;;
54983;SDS011;40884;53.562;9.940;2022-11-03T01:09:44;9.73;;;2.70;;
54983;SDS011;40884;53.562;9.940;2022-11-03T01:10:44;9.80;;;2.50;;
54983;SDS011;40884;53.562;9.940;2022-11-03T01:11:57;5.13;;;2.53;;
54983;SDS011;40884;53.562;9.940;2022-11-03T01:12:57;6.63;;;2.17;;
54983;SDS011;40884;53.562;9.940;2022-11-03T01:13:58;6.97;;;2.30;;
54983;SDS011;40884;53.562;9.940;2022-11-03T01:14:58;8.23;;;2.60;;
54983;SDS011;40884;53.562;9.940;2022-11-03T01:15:58;9.40;;;2.97;;
54983;SDS011;40884;53.562;9.940;2022-11-03T01:16:58;6.97;;;2.53;;
54983;SDS011;40884;53.562;9.940;2022-11-03T01:17:58;7.03;;;2.43;;
54983;SDS011;40884;53.562;9.940;2022-11-03T01:18:59;6.43;;;2.53;;
54983;SDS011;40884;53.562;9.940;2022-11-03T01:19:59;10.73;;;3.00;;
54983;SDS011;40884;53.562;9.940;2022-11-03T01:20:59;8.33;;;2.20;;
54983;SDS011;40884;53.562;9.940;2022-11-03T01:21:59;5.07;;;2.00;;
54983;SDS011;40884;53.562;9.940;2022-11-03T01:22:59;8.93;;;2.50;;
54983;SDS011;40884;53.562;9.940;2022-11-03T01:24:00;7.90;;;2.33;;
54983;SDS011;40884;53.562;9.940;2022-11-03T01:25:00;8.63;;;2.40;;
54983;SDS011;40884;53.562;9.940;2022-11-03T01:26:07;9.13;;;2.73;;
54983;SDS011;40884;53.562;9.940;2022-11-03T01:27:08;7.33;;;2.60;;
54983;SDS011;40884;53.562;9.940;2022-11-03T01:28:08;5.80;;;2.37;;
54983;SDS011;40884;53.562;9.940;2022-11-03T01:29:08;6.57;;;2.43;;
54983;SDS011;40884;53.562;9.940;2022-11-03T01:30:08;6.93;;;2.30;;
54983;SDS011;40884;53.562;9.940;2022-11-03T01:31:16;9.97;;;2.60;;
54983;SDS011;40884;53.562;9.940;2022-11-03T01:32:16;6.07;;;2.10;;
54983;SDS011;40884;53.562;9.940;2022-11-03T01:33:16;6.10;;;2.53;;
54983;SDS011;40884;53.562;9.940;2022-11-03T01:34:17;10.63;;;3.00;;
54983;SDS011;40884;53.562;9.940;2022-11-03T01:35:17;9.20;;;2.70;;
54983;SDS011;40884;53.562;9.940;2022-11-03T01:36:18;9.87;;;2.80;;
54983;SDS011;40884;53.562;9.940;2022-11-03T01:37:18;7.03;;;2.40;;
54983;SDS011;40884;53.562;9.940;2022-11-03T01:38:18;8.50;;;2.50;;
54983;SDS011;40884;53.562;9.940;2022-11-03T01:39:19;6.07;;;2.53;;
54983;SDS011;40884;53.562;9.940;2022-11-03T01:40:19;7.87;;;2.60;;
54983;SDS011;40884;53.562;9.940;2022-11-03T01:41:20;8.93;;;2.50;;
54983;SDS011;40884;53.562;9.940;2022-11-03T01:42:20;6.20;;;2.27;;
54983;SDS011;40884;53.562;9.940;2022-11-03T01:43:21;8.00;;;2.57;;
54983;SDS011;40884;53.562;9.940;2022-11-03T01:45:21;6.40;;;2.33;;
54983;SDS011;40884;53.562;9.940;2022-11-03T01:46:22;6.60;;;2.33;;
54983;SDS011;40884;53.562;9.940;2022-11-03T01:47:27;6.90;;;2.70;;
54983;SDS011;40884;53.562;9.940;2022-11-03T01:48:27;7.77;;;2.37;;
54983;SDS011;40884;53.562;9.940;2022-11-03T01:49:32;5.63;;;2.20;;
54983;SDS011;40884;53.562;9.940;2022-11-03T01:50:34;8.10;;;2.30;;
54983;SDS011;40884;53.562;9.940;2022-11-03T01:51:35;10.10;;;2.80;;
54983;SDS011;40884;53.562;9.940;2022-11-03T01:52:43;6.80;;;2.67;;
54983;SDS011;40884;53.562;9.940;2022-11-03T01:53:46;5.97;;;1.87;;
54983;SDS011;40884;53.562;9.940;2022-11-03T01:54:48;6.68;;;2.25;;
54983;SDS011;40884;53.562;9.940;2022-11-03T01:55:48;5.67;;;2.13;;
54983;SDS011;40884;53.562;9.940;2022-11-03T01:56:49;8.97;;;2.33;;
54983;SDS011;40884;53.562;9.940;2022-11-03T01:57:52;7.27;;;2.53;;
54983;SDS011;40884;53.562;9.940;2022-11-03T01:58:53;5.87;;;2.03;;
54983;SDS011;40884;53.562;9.940;2022-11-03T01:59:54;6.27;;;2.20;;
54983;SDS011;40884;53.562;9.940;2022-11-03T02:00:58;11.03;;;2.60;;
54983;SDS011;40884;53.562;9.940;2022-11-03T02:02:00;7.53;;;2.30;;
54983;SDS011;40884;53.562;9.940;2022-11-03T02:03:00;6.33;;;2.50;;
54983;SDS011;40884;53.562;9.940;2022-11-03T02:04:06;10.13;;;2.23;;
54983;SDS011;40884;53.562;9.940;2022-11-03T02:05:08;7.70;;;2.43;;
54983;SDS011;40884;53.562;9.940;2022-11-03T02:06:09;6.57;;;2.33;;
54983;SDS011;40884;53.562;9.940;2022-11-03T02:07:23;7.33;;;2.73;;
54983;SDS011;40884;53.562;9.940;2022-11-03T02:08:30;8.57;;;2.70;;
54983;SDS011;40884;53.562;9.940;2022-11-03T02:09:33;6.90;;;2.30;;
54983;SDS011;40884;53.562;9.940;2022-11-03T02:10:33;6.37;;;2.20;;
54983;SDS011;40884;53.562;9.940;2022-11-03T02:11:34;7.00;;;2.00;;
54983;SDS011;40884;53.562;9.940;2022-11-03T02:12:34;6.13;;;2.10;;
54983;SDS011;40884;53.562;9.940;2022-11-03T02:13:34;6.03;;;2.17;;
54983;SDS011;40884;53.562;9.940;2022-11-03T02:14:36;7.47;;;2.30;;
54983;SDS011;40884;53.562;9.940;2022-11-03T02:15:38;8.63;;;2.73;;
54983;SDS011;40884;53.562;9.940;2022-11-03T02:16:38;6.57;;;2.00;;
54983;SDS011;40884;53.562;9.940;2022-11-03T02:17:39;7.40;;;2.17;;
54983;SDS011;40884;53.562;9.940;2022-11-03T02:18:40;10.53;;;2.37;;
54983;SDS011;40884;53.562;9.940;2022-11-03T02:19:43;8.20;;;2.70;;
54983;SDS011;40884;53.562;9.940;2022-11-03T02:20:45;6.27;;;2.03;;
54983;SDS011;40884;53.562;9.940;2022-11-03T02:22:08;6.23;;;2.50;;
54983;SDS011;40884;53.562;9.940;2022-11-03T02:23:20;8.27;;;2.20;;
54983;SDS011;40884;53.562;9.940;2022-11-03T02:25:32;9.30;;;2.30;;
54983;SDS011;40884;53.562;9.940;2022-11-03T02:26:33;6.97;;;2.07;;
54983;SDS011;40884;53.562;9.940;2022-11-03T02:27:34;7.37;;;1.97;;
54983;SDS011;40884;53.562;9.940;2022-11-03T02:28:34;6.00;;;2.13;;
54983;SDS011;40884;53.562;9.940;2022-11-03T02:29:34;5.27;;;1.87;;
54983;SDS011;40884;53.562;9.940;2022-11-03T02:30:38;6.07;;;2.17;;
54983;SDS011;40884;53.562;9.940;2022-11-03T02:31:41;7.40;;;2.20;;
54983;SDS011;40884;53.562;9.940;2022-11-03T02:32:56;7.07;;;2.20;;
54983;SDS011;40884;53.562;9.940;2022-11-03T02:36:29;7.83;;;2.10;;
54983;SDS011;40884;53.562;9.940;2022-11-03T02:37:31;7.63;;;2.47;;
54983;SDS011;40884;53.562;9.940;2022-11-03T02:38:33;10.50;;;2.60;;
54983;SDS011;40884;53.562;9.940;2022-11-03T02:39:43;7.17;;;2.37;;
54983;SDS011;40884;53.562;9.940;2022-11-03T02:40:45;6.17;;;2.00;;
54983;SDS011;40884;53.562;9.940;2022-11-03T02:41:46;10.57;;;2.23;;
54983;SDS011;40884;53.562;9.940;2022-11-03T02:42:47;7.00;;;2.30;;
54983;SDS011;40884;53.562;9.940;2022-11-03T02:43:49;6.70;;;2.43;;
54983;SDS011;40884;53.562;9.940;2022-11-03T02:44:51;6.70;;;1.90;;
54983;SDS011;40884;53.562;9.940;2022-11-03T02:45:52;5.93;;;2.10;;
54983;SDS011;40884;53.562;9.940;2022-11-03T02:46:55;6.77;;;2.10;;
54983;SDS011;40884;53.562;9.940;2022-11-03T02:47:59;8.73;;;2.43;;
54983;SDS011;40884;53.562;9.940;2022-11-03T02:49:01;5.40;;;2.00;;
54983;SDS011;40884;53.562;9.940;2022-11-03T02:50:03;6.20;;;1.90;;
54983;SDS011;40884;53.562;9.940;2022-11-03T02:51:03;7.73;;;2.47;;
54983;SDS011;40884;53.562;9.940;2022-11-03T02:52:04;7.83;;;2.03;;
54983;SDS011;40884;53.562;9.940;2022-11-03T02:53:04;6.13;;;2.20;;
54983;SDS011;40884;53.562;9.940;2022-11-03T02:54:06;8.40;;;2.43;;
54983;SDS011;40884;53.562;9.940;2022-11-03T02:55:15;6.37;;;1.90;;
54983;SDS011;40884;53.562;9.940;2022-11-03T02:56:18;8.73;;;2.10;;
54983;SDS011;40884;53.562;9.940;2022-11-03T02:57:20;4.97;;;1.80;;
54983;SDS011;40884;53.562;9.940;2022-11-03T02:58:34;5.30;;;1.90;;
54983;SDS011;40884;53.562;9.940;2022-11-03T02:59:45;6.87;;;2.20;;
54983;SDS011;40884;53.562;9.940;2022-11-03T03:01:54;9.70;;;2.03;;
54983;SDS011;40884;53.562;9.940;2022-11-03T03:03:04;8.17;;;2.07;;
54983;SDS011;40884;53.562;9.940;2022-11-03T03:04:07;7.87;;;2.83;;
54983;SDS011;40884;53.562;9.940;2022-11-03T03:05:09;4.83;;;2.07;;
54983;SDS011;40884;53.562;9.940;2022-11-03T03:06:11;5.30;;;2.07;;
54983;SDS011;40884;53.562;9.940;2022-11-03T03:07:13;5.87;;;2.30;;
54983;SDS011;40884;53.562;9.940;2022-11-03T03:08:14;8.00;;;2.10;;
54983;SDS011;40884;53.562;9.940;2022-11-03T03:09:17;8.73;;;2.20;;
54983;SDS011;40884;53.562;9.940;2022-11-03T03:10:19;5.73;;;2.20;;
54983;SDS011;40884;53.562;9.940;2022-11-03T03:11:20;5.73;;;1.90;;
54983;SDS011;40884;53.562;9.940;2022-11-03T03:12:20;8.07;;;2.07;;
54983;SDS011;40884;53.562;9.940;2022-11-03T03:13:21;5.03;;;1.90;;
54983;SDS011;40884;53.562;9.940;2022-11-03T03:14:29;5.33;;;1.77;;
54983;SDS011;40884;53.562;9.940;2022-11-03T03:16:56;5.80;;;2.20;;
54983;SDS011;40884;53.562;9.940;2022-11-03T03:18:00;4.93;;;2.37;;
54983;SDS011;40884;53.562;9.940;2022-11-03T03:19:05;7.60;;;2.03;;
54983;SDS011;40884;53.562;9.940;2022-11-03T03:20:14;6.87;;;2.37;;
54983;SDS011;40884;53.562;9.940;2022-11-03T03:21:20;7.60;;;2.10;;
54983;SDS011;40884;53.562;9.940;2022-11-03T03:22:23;7.20;;;2.20;;
54983;SDS011;40884;53.562;9.940;2022-11-03T03:23:24;11.00;;;2.77;;
54983;SDS011;40884;53.562;9.940;2022-11-03T03:24:27;5.43;;;2.23;;
54983;SDS011;40884;53.562;9.940;2022-11-03T03:25:31;6.57;;;2.10;;
54983;SDS011;40884;53.562;9.940;2022-11-03T03:26:34;4.67;;;1.70;;
54983;SDS011;40884;53.562;9.940;2022-11-03T03:27:35;9.40;;;2.07;;
54983;SDS011;40884;53.562;9.940;2022-11-03T03:28:41;7.50;;;2.30;;
54983;SDS011;40884;53.562;9.940;2022-11-03T03:29:44;4.60;;;1.83;;
54983;SDS011;40884;53.562;9.940;2022-11-03T03:30:45;6.53;;;2.23;;
54983;SDS011;40884;53.562;9.940;2022-11-03T03:31:48;7.10;;;2.17;;
54983;SDS011;40884;53.562;9.940;2022-11-03T03:32:50;7.47;;;1.93;;
54983;SDS011;40884;53.562;9.940;2022-11-03T03:33:51;6.70;;;2.17;;
54983;SDS011;40884;53.562;9.940;2022-11-03T03:34:52;7.30;;;2.17;;
54983;SDS011;40884;53.562;9.940;2022-11-03T03:35:53;5.20;;;1.90;;
54983;SDS011;40884;53.562;9.940;2022-11-03T03:36:55;7.30;;;1.87;;
54983;SDS011;40884;53.562;9.940;2022-11-03T03:37:57;6.73;;;1.70;;
54983;SDS011;40884;53.562;9.940;2022-11-03T03:38:59;10.83;;;2.10;;
54983;SDS011;40884;53.562;9.940;2022-11-03T03:40:02;5.73;;;1.90;;
54983;SDS011;40884;53.562;9.940;2022-11-03T03:41:03;7.53;;;2.30;;
54983;SDS011;40884;53.562;9.940;2022-11-03T03:42:04;5.13;;;1.80;;
54983;SDS011;40884;53.562;9.940;2022-11-03T03:43:06;5.97;;;2.07;;
54983;SDS011;40884;53.562;9.940;2022-11-03T03:44:07;7.93;;;2.23;;
54983;SDS011;40884;53.562;9.940;2022-11-03T03:45:09;8.30;;;2.23;;
54983;SDS011;40884;53.562;9.940;2022-11-03T03:46:10;9.23;;;1.80;;
54983;SDS011;40884;53.562;9.940;2022-11-03T03:47:14;7.13;;;1.90;;
54983;SDS011;40884;53.562;9.940;2022-11-03T03:48:16;6.20;;;2.07;;
54983;SDS011;40884;53.562;9.940;2022-11-03T03:49:17;5.37;;;1.83;;
54983;SDS011;40884;53.562;9.940;2022-11-03T03:50:17;7.43;;;1.90;;
54983;SDS011;40884;53.562;9.940;2022-11-03T03:51:18;6.17;;;2.13;;
54983;SDS011;40884;53.562;9.940;2022-11-03T03:52:18;7.80;;;2.03;;
54983;SDS011;40884;53.562;9.940;2022-11-03T03:53:19;7.57;;;2.00;;
54983;SDS011;40884;53.562;9.940;2022-11-03T03:54:19;5.00;;;1.80;;
54983;SDS011;40884;53.562;9.940;2022-11-03T03:55:19;7.60;;;1.70;;
54983;SDS011;40884;53.562;9.940;2022-11-03T03:56:22;6.23;;;2.20;;
54983;SDS011;40884;53.562;9.940;2022-11-03T03:57:24;10.67;;;1.93;;
54983;SDS011;40884;53.562;9.940;2022-11-03T03:58:25;7.53;;;1.87;;
54983;SDS011;40884;53.562;9.940;2022-11-03T03:59:25;10.57;;;1.90;;
54983;SDS011;40884;53.562;9.940;2022-11-03T04:00:25;7.50;;;1.93;;
54983;SDS011;40884;53.562;9.940;2022-11-03T04:01:26;9.87;;;1.97;;
54983;SDS011;40884;53.562;9.940;2022-11-03T04:02:26;6.80;;;2.20;;
54983;SDS011;40884;53.562;9.940;2022-11-03T04:03:26;10.43;;;2.17;;
54983;SDS011;40884;53.562;9.940;2022-11-03T04:04:26;6.17;;;1.80;;
54983;SDS011;40884;53.562;9.940;2022-11-03T04:05:26;4.70;;;2.07;;
54983;SDS011;40884;53.562;9.940;2022-11-03T04:06:26;6.60;;;2.13;;
54983;SDS011;40884;53.562;9.940;2022-11-03T04:07:26;6.03;;;1.80;;
54983;SDS011;40884;53.562;9.940;2022-11-03T04:08:26;4.97;;;1.90;;
54983;SDS011;40884;53.562;9.940;2022-11-03T04:09:26;10.50;;;2.37;;
54983;SDS011;40884;53.562;9.940;2022-11-03T04:10:27;6.53;;;1.90;;
54983;SDS011;40884;53.562;9.940;2022-11-03T04:11:27;8.00;;;1.80;;
54983;SDS011;40884;53.562;9.940;2022-11-03T04:12:27;7.63;;;1.73;;
54983;SDS011;40884;53.562;9.940;2022-11-03T04:13:27;6.00;;;2.07;;
54983;SDS011;40884;53.562;9.940;2022-11-03T04:14:27;6.33;;;2.13;;
54983;SDS011;40884;53.562;9.940;2022-11-03T04:15:27;6.10;;;1.83;;
54983;SDS011;40884;53.562;9.940;2022-11-03T04:16:28;8.03;;;2.00;;
54983;SDS011;40884;53.562;9.940;2022-11-03T04:17:28;8.40;;;2.17;;
54983;SDS011;40884;53.562;9.940;2022-11-03T04:18:28;5.67;;;1.77;;
54983;SDS011;40884;53.562;9.940;2022-11-03T04:19:28;4.83;;;1.67;;
54983;SDS011;40884;53.562;9.940;2022-11-03T04:20:28;5.93;;;2.10;;
54983;SDS011;40884;53.562;9.940;2022-11-03T04:21:28;8.47;;;2.07;;
54983;SDS011;40884;53.562;9.940;2022-11-03T04:22:31;7.33;;;1.90;;
54983;SDS011;40884;53.562;9.940;2022-11-03T04:23:31;4.83;;;1.90;;
54983;SDS011;40884;53.562;9.940;2022-11-03T04:24:31;5.17;;;2.43;;
54983;SDS011;40884;53.562;9.940;2022-11-03T04:25:31;5.07;;;2.20;;
54983;SDS011;40884;53.562;9.940;2022-11-03T04:26:33;6.03;;;1.97;;
54983;SDS011;40884;53.562;9.940;2022-11-03T04:27:34;6.17;;;1.90;;
54983;SDS011;40884;53.562;9.940;2022-11-03T04:28:34;7.57;;;1.77;;
54983;SDS011;40884;53.562;9.940;2022-11-03T04:29:34;5.40;;;1.80;;
54983;SDS011;40884;53.562;9.940;2022-11-03T04:30:34;10.50;;;2.00;;
54983;SDS011;40884;53.562;9.940;2022-11-03T04:31:34;6.07;;;1.53;;
54983;SDS011;40884;53.562;9.940;2022-11-03T04:32:35;6.50;;;1.77;;
54983;SDS011;40884;53.562;9.940;2022-11-03T04:33:35;6.53;;;1.70;;
54983;SDS011;40884;53.562;9.940;2022-11-03T04:34:35;8.20;;;1.87;;
54983;SDS011;40884;53.562;9.940;2022-11-03T04:35:35;6.60;;;1.80;;
54983;SDS011;40884;53.562;9.940;2022-11-03T04:36:35;8.67;;;2.00;;
54983;SDS011;40884;53.562;9.940;2022-11-03T04:37:36;5.33;;;1.90;;
54983;SDS011;40884;53.562;9.940;2022-11-03T04:38:36;5.03;;;1.83;;
54983;SDS011;40884;53.562;9.940;2022-11-03T04:39:36;5.43;;;1.93;;
54983;SDS011;40884;53.562;9.940;2022-11-03T04:40:36;5.23;;;1.63;;
54983;SDS011;40884;53.562;9.940;2022-11-03T04:41:37;7.00;;;1.70;;
54983;SDS011;40884;53.562;9.940;2022-11-03T04:42:37;6.77;;;2.00;;
54983;SDS011;40884;53.562;9.940;2022-11-03T04:43:37;7.93;;;1.83;;
54983;SDS011;40884;53.562;9.940;2022-11-03T04:44:37;6.73;;;1.83;;
54983;SDS011;40884;53.562;9.940;2022-11-03T04:45:38;11.33;;;2.47;;
54983;SDS011;40884;53.562;9.940;2022-11-03T04:46:38;8.17;;;2.00;;
54983;SDS011;40884;53.562;9.940;2022-11-03T04:47:38;5.27;;;1.80;;
54983;SDS011;40884;53.562;9.940;2022-11-03T04:48:38;6.83;;;2.07;;
54983;SDS011;40884;53.562;9.940;2022-11-03T04:49:38;7.23;;;2.07;;
54983;SDS011;40884;53.562;9.940;2022-11-03T04:50:39;6.00;;;2.30;;
54983;SDS011;40884;53.562;9.940;2022-11-03T04:51:39;5.10;;;1.40;;
54983;SDS011;40884;53.562;9.940;2022-11-03T04:52:40;6.43;;;1.70;;
54983;SDS011;40884;53.562;9.940;2022-11-03T04:53:42;7.93;;;1.97;;
54983;SDS011;40884;53.562;9.940;2022-11-03T04:54:44;5.47;;;2.17;;
54983;SDS011;40884;53.562;9.940;2022-11-03T04:55:46;7.63;;;2.03;;
54983;SDS011;40884;53.562;9.940;2022-11-03T04:56:47;7.27;;;2.20;;
54983;SDS011;40884;53.562;9.940;2022-11-03T04:57:47;7.00;;;1.77;;
54983;SDS011;40884;53.562;9.940;2022-11-03T04:58:47;5.00;;;1.50;;
54983;SDS011;40884;53.562;9.940;2022-11-03T04:59:48;5.87;;;1.77;;
54983;SDS011;40884;53.562;9.940;2022-11-03T05:00:49;6.53;;;1.90;;
54983;SDS011;40884;53.562;9.940;2022-11-03T05:01:50;10.50;;;2.37;;
54983;SDS011;40884;53.562;9.940;2022-11-03T05:02:50;7.90;;;2.17;;
54983;SDS011;40884;53.562;9.940;2022-11-03T05:03:51;5.70;;;1.87;;
54983;SDS011;40884;53.562;9.940;2022-11-03T05:04:51;6.83;;;2.43;;
54983;SDS011;40884;53.562;9.940;2022-11-03T05:05:52;5.47;;;1.80;;
54983;SDS011;40884;53.562;9.940;2022-11-03T05:06:52;6.00;;;2.10;;
54983;SDS011;40884;53.562;9.940;2022-11-03T05:07:53;10.60;;;2.20;;
54983;SDS011;40884;53.562;9.940;2022-11-03T05:09:06;8.37;;;2.20;;
54983;SDS011;40884;53.562;9.940;2022-11-03T05:10:11;9.27;;;2.00;;
54983;SDS011;40884;53.562;9.940;2022-11-03T05:11:33;8.27;;;2.07;;
54983;SDS011;40884;53.562;9.940;2022-11-03T05:12:33;7.87;;;2.30;;
54983;SDS011;40884;53.562;9.940;2022-11-03T05:13:33;7.63;;;2.20;;
54983;SDS011;40884;53.562;9.940;2022-11-03T05:14:33;9.77;;;2.37;;
54983;SDS011;40884;53.562;9.940;2022-11-03T05:15:36;8.33;;;2.00;;
54983;SDS011;40884;53.562;9.940;2022-11-03T05:16:36;9.00;;;2.20;;
54983;SDS011;40884;53.562;9.940;2022-11-03T05:17:37;5.93;;;1.90;;
54983;SDS011;40884;53.562;9.940;2022-11-03T05:18:38;8.57;;;2.07;;
54983;SDS011;40884;53.562;9.940;2022-11-03T05:19:39;9.83;;;2.37;;
54983;SDS011;40884;53.562;9.940;2022-11-03T05:20:48;6.47;;;1.87;;
54983;SDS011;40884;53.562;9.940;2022-11-03T05:21:49;4.70;;;1.70;;
54983;SDS011;40884;53.562;9.940;2022-11-03T05:22:50;5.97;;;2.10;;
54983;SDS011;40884;53.562;9.940;2022-11-03T05:23:53;8.17;;;2.40;;
54983;SDS011;40884;53.562;9.940;2022-11-03T05:24:59;4.17;;;1.90;;
54983;SDS011;40884;53.562;9.940;2022-11-03T05:26:00;5.87;;;1.63;;
54983;SDS011;40884;53.562;9.940;2022-11-03T05:27:01;7.90;;;2.30;;
54983;SDS011;40884;53.562;9.940;2022-11-03T05:28:01;8.00;;;2.23;;
54983;SDS011;40884;53.562;9.940;2022-11-03T05:29:03;6.30;;;1.97;;
54983;SDS011;40884;53.562;9.940;2022-11-03T05:30:11;10.03;;;1.80;;
54983;SDS011;40884;53.562;9.940;2022-11-03T05:31:25;7.00;;;1.83;;
54983;SDS011;40884;53.562;9.940;2022-11-03T05:32:29;8.20;;;2.20;;
54983;SDS011;40884;53.562;9.940;2022-11-03T05:33:35;5.83;;;1.93;;
54983;SDS011;40884;53.562;9.940;2022-11-03T05:34:36;6.57;;;1.83;;
54983;SDS011;40884;53.562;9.940;2022-11-03T05:35:39;9.73;;;3.83;;
54983;SDS011;40884;53.562;9.940;2022-11-03T05:36:39;10.37;;;3.03;;
54983;SDS011;40884;53.562;9.940;2022-11-03T05:37:40;10.57;;;2.90;;
54983;SDS011;40884;53.562;9.940;2022-11-03T05:38:40;8.87;;;2.73;;
54983;SDS011;40884;53.562;9.940;2022-11-03T05:39:42;8.43;;;2.57;;
54983;SDS011;40884;53.562;9.940;2022-11-03T05:40:43;10.53;;;3.10;;
54983;SDS011;40884;53.562;9.940;2022-11-03T05:41:43;8.73;;;2.23;;
54983;SDS011;40884;53.562;9.940;2022-11-03T05:42:43;7.20;;;2.30;;
54983;SDS011;40884;53.562;9.940;2022-11-03T05:43:45;9.80;;;2.70;;
54983;SDS011;40884;53.562;9.940;2022-11-03T05:44:49;7.50;;;1.97;;
54983;SDS011;40884;53.562;9.940;2022-11-03T05:45:49;6.47;;;2.00;;
54983;SDS011;40884;53.562;9.940;2022-11-03T05:46:50;6.20;;;2.10;;
54983;SDS011;40884;53.562;9.940;2022-11-03T05:47:54;8.03;;;2.10;;
54983;SDS011;40884;53.562;9.940;2022-11-03T05:48:54;5.27;;;2.00;;
54983;SDS011;40884;53.562;9.940;2022-11-03T05:49:56;8.80;;;2.40;;
54983;SDS011;40884;53.562;9.940;2022-11-03T05:50:59;7.13;;;2.20;;
54983;SDS011;40884;53.562;9.940;2022-11-03T05:51:59;6.87;;;2.30;;
54983;SDS011;40884;53.562;9.940;2022-11-03T05:53:07;7.23;;;2.30;;
54983;SDS011;40884;53.562;9.940;2022-11-03T05:54:15;11.27;;;2.40;;
54983;SDS011;40884;53.562;9.940;2022-11-03T05:55:25;5.43;;;1.90;;
54983;SDS011;40884;53.562;9.940;2022-11-03T05:56:25;7.47;;;2.27;;
54983;SDS011;40884;53.562;9.940;2022-11-03T05:57:27;11.20;;;2.73;;
54983;SDS011;40884;53.562;9.940;2022-11-03T05:58:30;5.00;;;1.80;;
54983;SDS011;40884;53.562;9.940;2022-11-03T05:59:30;9.23;;;3.70;;
54983;SDS011;40884;53.562;9.940;2022-11-03T06:00:31;13.03;;;3.73;;
54983;SDS011;40884;53.562;9.940;2022-11-03T06:01:33;8.40;;;3.07;;
54983;SDS011;40884;53.562;9.940;2022-11-03T06:02:37;8.40;;;3.13;;
54983;SDS011;40884;53.562;9.940;2022-11-03T06:03:38;9.27;;;2.73;;
54983;SDS011;40884;53.562;9.940;2022-11-03T06:04:38;9.40;;;2.30;;
54983;SDS011;40884;53.562;9.940;2022-11-03T06:05:38;8.63;;;2.40;;
54983;SDS011;40884;53.562;9.940;2022-11-03T06:06:39;9.37;;;2.30;;
54983;SDS011;40884;53.562;9.940;2022-11-03T06:07:40;8.70;;;2.50;;
54983;SDS011;40884;53.562;9.940;2022-11-03T06:08:40;7.87;;;2.30;;
54983;SDS011;40884;53.562;9.940;2022-11-03T06:09:40;8.47;;;2.07;;
54983;SDS011;40884;53.562;9.940;2022-11-03T06:10:41;6.77;;;2.60;;
54983;SDS011;40884;53.562;9.940;2022-11-03T06:11:44;7.03;;;2.40;;
54983;SDS011;40884;53.562;9.940;2022-11-03T06:12:44;8.17;;;2.10;;
54983;SDS011;40884;53.562;9.940;2022-11-03T06:13:44;8.23;;;2.37;;
54983;SDS011;40884;53.562;9.940;2022-11-03T06:14:44;7.93;;;2.23;;
54983;SDS011;40884;53.562;9.940;2022-11-03T06:15:45;7.33;;;2.10;;
54983;SDS011;40884;53.562;9.940;2022-11-03T06:16:49;9.73;;;2.80;;
54983;SDS011;40884;53.562;9.940;2022-11-03T06:17:50;13.10;;;4.57;;
54983;SDS011;40884;53.562;9.940;2022-11-03T06:18:50;18.57;;;6.37;;